sensor_id;sensor_type;location;lat;lon;timestamp;pressure;altitude;pressure_sealevel;temperature;humidity
67517;BME280;68821;59.134;37.894;2023-04-19T00:01:21;101387.94;;;5.61;40.48
67517;BME280;68821;59.134;37.894;2023-04-19T00:03:48;101392.78;;;5.56;41.01
67517;BME280;68821;59.134;37.894;2023-04-19T00:06:14;101391.97;;;5.57;40.29
67517;BME280;68821;59.134;37.894;2023-04-19T00:08:42;101393.44;;;5.52;40.32
67517;BME280;68821;59.134;37.894;2023-04-19T00:11:08;101392.47;;;5.50;40.50
67517;BME280;68821;59.134;37.894;2023-04-19T00:13:35;101390.47;;;5.44;41.03
67517;BME280;68821;59.134;37.894;2023-04-19T00:16:01;101389.16;;;5.36;41.08
67517;BME280;68821;59.134;37.894;2023-04-19T00:18:27;101392.59;;;5.37;40.99
67517;BME280;68821;59.134;37.894;2023-04-19T00:20:53;101398.59;;;5.37;40.81
67517;BME280;68821;59.134;37.894;2023-04-19T00:23:19;101396.56;;;5.32;41.27
67517;BME280;68821;59.134;37.894;2023-04-19T00:25:47;101404.22;;;5.32;40.75
67517;BME280;68821;59.134;37.894;2023-04-19T00:28:14;101404.75;;;5.26;41.02
67517;BME280;68821;59.134;37.894;2023-04-19T00:30:40;101403.66;;;5.21;41.08
67517;BME280;68821;59.134;37.894;2023-04-19T00:33:06;101401.63;;;5.15;41.33
67517;BME280;68821;59.134;37.894;2023-04-19T00:35:39;101413.56;;;5.16;41.14
67517;BME280;68821;59.134;37.894;2023-04-19T00:38:07;101404.00;;;5.12;41.00
67517;BME280;68821;59.134;37.894;2023-04-19T00:40:33;101402.78;;;5.06;41.33
67517;BME280;68821;59.134;37.894;2023-04-19T00:42:59;101408.59;;;5.03;41.68
67517;BME280;68821;59.134;37.894;2023-04-19T00:45:25;101411.66;;;4.97;41.43
67517;BME280;68821;59.134;37.894;2023-04-19T00:47:52;101402.72;;;4.89;41.58
67517;BME280;68821;59.134;37.894;2023-04-19T00:50:18;101416.31;;;4.90;41.59
67517;BME280;68821;59.134;37.894;2023-04-19T00:52:45;101411.69;;;4.82;41.49
67517;BME280;68821;59.134;37.894;2023-04-19T00:55:12;101412.41;;;4.80;41.66
67517;BME280;68821;59.134;37.894;2023-04-19T00:57:38;101414.75;;;4.77;41.67
67517;BME280;68821;59.134;37.894;2023-04-19T01:00:05;101419.75;;;4.75;41.30
67517;BME280;68821;59.134;37.894;2023-04-19T01:02:33;101418.72;;;4.72;42.24
67517;BME280;68821;59.134;37.894;2023-04-19T01:04:59;101411.50;;;4.64;42.06
67517;BME280;68821;59.134;37.894;2023-04-19T01:07:26;101426.00;;;4.66;41.98
67517;BME280;68821;59.134;37.894;2023-04-19T01:09:53;101414.66;;;4.60;41.70
67517;BME280;68821;59.134;37.894;2023-04-19T01:12:19;101412.03;;;4.59;42.03
67517;BME280;68821;59.134;37.894;2023-04-19T01:14:45;101408.34;;;4.54;42.47
67517;BME280;68821;59.134;37.894;2023-04-19T01:17:11;101420.28;;;4.55;42.33
67517;BME280;68821;59.134;37.894;2023-04-19T01:19:40;101423.72;;;4.55;42.30
67517;BME280;68821;59.134;37.894;2023-04-19T01:22:07;101412.22;;;4.47;42.21
67517;BME280;68821;59.134;37.894;2023-04-19T01:24:34;101407.75;;;4.43;42.47
67517;BME280;68821;59.134;37.894;2023-04-19T01:27:00;101415.38;;;4.43;42.18
67517;BME280;68821;59.134;37.894;2023-04-19T01:29:27;101415.19;;;4.40;42.45
67517;BME280;68821;59.134;37.894;2023-04-19T01:31:53;101427.13;;;4.41;42.59
67517;BME280;68821;59.134;37.894;2023-04-19T01:34:19;101427.03;;;4.39;42.34
67517;BME280;68821;59.134;37.894;2023-04-19T01:36:46;101425.88;;;4.34;42.50
67517;BME280;68821;59.134;37.894;2023-04-19T01:39:12;101423.94;;;4.30;42.58
67517;BME280;68821;59.134;37.894;2023-04-19T01:41:38;101422.97;;;4.28;42.66
67517;BME280;68821;59.134;37.894;2023-04-19T01:44:04;101425.34;;;4.25;42.78
67517;BME280;68821;59.134;37.894;2023-04-19T01:46:30;101412.59;;;4.10;42.84
67517;BME280;68821;59.134;37.894;2023-04-19T01:48:59;101416.13;;;4.12;42.60
67517;BME280;68821;59.134;37.894;2023-04-19T01:51:25;101437.72;;;4.19;42.83
67517;BME280;68821;59.134;37.894;2023-04-19T01:53:51;101437.59;;;4.17;42.41
67517;BME280;68821;59.134;37.894;2023-04-19T01:56:20;101442.81;;;4.19;43.01
67517;BME280;68821;59.134;37.894;2023-04-19T01:58:46;101439.09;;;4.14;42.89
67517;BME280;68821;59.134;37.894;2023-04-19T02:01:12;101435.66;;;4.13;43.27
67517;BME280;68821;59.134;37.894;2023-04-19T02:03:39;101448.38;;;4.13;42.97
67517;BME280;68821;59.134;37.894;2023-04-19T02:06:09;101449.88;;;4.10;42.88
67517;BME280;68821;59.134;37.894;2023-04-19T02:08:37;101445.47;;;4.07;43.10
67517;BME280;68821;59.134;37.894;2023-04-19T02:11:11;101451.06;;;4.01;43.60
67517;BME280;68821;59.134;37.894;2023-04-19T02:13:40;101447.66;;;4.01;43.20
67517;BME280;68821;59.134;37.894;2023-04-19T02:16:07;101450.69;;;3.95;43.55
67517;BME280;68821;59.134;37.894;2023-04-19T02:18:34;101446.22;;;3.91;43.71
67517;BME280;68821;59.134;37.894;2023-04-19T02:21:04;101446.13;;;3.90;43.68
67517;BME280;68821;59.134;37.894;2023-04-19T02:23:31;101454.63;;;3.90;43.93
67517;BME280;68821;59.134;37.894;2023-04-19T02:25:57;101451.13;;;3.88;43.59
67517;BME280;68821;59.134;37.894;2023-04-19T02:28:23;101443.22;;;3.83;43.63
67517;BME280;68821;59.134;37.894;2023-04-19T02:30:49;101452.59;;;3.85;43.73
67517;BME280;68821;59.134;37.894;2023-04-19T02:33:16;101454.25;;;3.84;43.87
67517;BME280;68821;59.134;37.894;2023-04-19T02:35:42;101458.56;;;3.85;43.89
67517;BME280;68821;59.134;37.894;2023-04-19T02:38:08;101448.97;;;3.81;43.89
67517;BME280;68821;59.134;37.894;2023-04-19T02:40:35;101454.88;;;3.80;43.92
67517;BME280;68821;59.134;37.894;2023-04-19T02:43:02;101445.47;;;3.79;43.80
67517;BME280;68821;59.134;37.894;2023-04-19T02:45:29;101441.34;;;3.81;43.97
67517;BME280;68821;59.134;37.894;2023-04-19T02:47:55;101448.47;;;3.87;43.97
67517;BME280;68821;59.134;37.894;2023-04-19T02:50:21;101447.78;;;3.89;43.83
67517;BME280;68821;59.134;37.894;2023-04-19T02:52:47;101444.63;;;3.93;44.23
67517;BME280;68821;59.134;37.894;2023-04-19T02:55:13;101443.97;;;3.96;44.12
67517;BME280;68821;59.134;37.894;2023-04-19T02:57:39;101446.94;;;4.03;44.68
67517;BME280;68821;59.134;37.894;2023-04-19T03:00:06;101414.09;;;3.93;44.38
67517;BME280;68821;59.134;37.894;2023-04-19T03:02:33;101439.88;;;4.13;44.11
67517;BME280;68821;59.134;37.894;2023-04-19T03:04:59;101455.53;;;4.19;43.97
67517;BME280;68821;59.134;37.894;2023-04-19T03:07:25;101455.78;;;4.23;44.18
67517;BME280;68821;59.134;37.894;2023-04-19T03:09:51;101456.97;;;4.29;44.02
67517;BME280;68821;59.134;37.894;2023-04-19T03:12:17;101460.38;;;4.29;44.24
67517;BME280;68821;59.134;37.894;2023-04-19T03:14:43;101463.19;;;4.34;43.85
67517;BME280;68821;59.134;37.894;2023-04-19T03:17:10;101465.03;;;4.36;43.90
67517;BME280;68821;59.134;37.894;2023-04-19T03:19:36;101462.47;;;4.36;44.19
67517;BME280;68821;59.134;37.894;2023-04-19T03:22:02;101460.84;;;4.37;43.84
67517;BME280;68821;59.134;37.894;2023-04-19T03:24:29;101463.75;;;4.43;44.05
67517;BME280;68821;59.134;37.894;2023-04-19T03:26:55;101457.09;;;4.45;44.22
67517;BME280;68821;59.134;37.894;2023-04-19T03:29:22;101453.94;;;4.49;44.16
67517;BME280;68821;59.134;37.894;2023-04-19T03:31:48;101444.63;;;4.50;44.24
67517;BME280;68821;59.134;37.894;2023-04-19T03:34:15;101431.63;;;4.45;44.30
67517;BME280;68821;59.134;37.894;2023-04-19T03:36:41;101444.16;;;4.57;44.38
67517;BME280;68821;59.134;37.894;2023-04-19T03:39:07;101441.97;;;4.63;44.05
67517;BME280;68821;59.134;37.894;2023-04-19T03:41:34;101445.69;;;4.68;44.20
67517;BME280;68821;59.134;37.894;2023-04-19T03:44:00;101429.69;;;4.71;44.18
67517;BME280;68821;59.134;37.894;2023-04-19T03:46:26;101434.44;;;4.79;44.41
67517;BME280;68821;59.134;37.894;2023-04-19T03:48:56;101431.19;;;4.82;44.30
67517;BME280;68821;59.134;37.894;2023-04-19T03:51:22;101441.13;;;4.92;44.26
67517;BME280;68821;59.134;37.894;2023-04-19T03:53:48;101442.16;;;4.96;44.06
67517;BME280;68821;59.134;37.894;2023-04-19T03:56:15;101440.91;;;5.04;44.15
67517;BME280;68821;59.134;37.894;2023-04-19T03:58:41;101444.72;;;5.11;44.34
67517;BME280;68821;59.134;37.894;2023-04-19T04:01:07;101436.59;;;5.18;44.10
67517;BME280;68821;59.134;37.894;2023-04-19T04:03:33;101445.63;;;5.28;44.29
67517;BME280;68821;59.134;37.894;2023-04-19T04:05:59;101446.13;;;5.37;43.84
67517;BME280;68821;59.134;37.894;2023-04-19T04:08:25;101438.91;;;5.44;44.41
67517;BME280;68821;59.134;37.894;2023-04-19T04:10:53;101438.38;;;5.50;44.26
67517;BME280;68821;59.134;37.894;2023-04-19T04:13:19;101422.59;;;5.57;44.47
67517;BME280;68821;59.134;37.894;2023-04-19T04:15:45;101427.34;;;5.66;44.66
67517;BME280;68821;59.134;37.894;2023-04-19T04:18:11;101428.88;;;5.79;44.05
67517;BME280;68821;59.134;37.894;2023-04-19T04:20:37;101425.91;;;5.88;44.54
67517;BME280;68821;59.134;37.894;2023-04-19T04:23:03;101434.16;;;5.98;44.49
67517;BME280;68821;59.134;37.894;2023-04-19T04:25:33;101438.16;;;6.10;44.74
67517;BME280;68821;59.134;37.894;2023-04-19T04:28:03;101431.78;;;6.18;44.74
67517;BME280;68821;59.134;37.894;2023-04-19T04:30:29;101426.91;;;6.22;44.14
67517;BME280;68821;59.134;37.894;2023-04-19T04:32:55;101436.97;;;6.36;44.09
67517;BME280;68821;59.134;37.894;2023-04-19T04:35:24;101419.22;;;6.39;44.79
67517;BME280;68821;59.134;37.894;2023-04-19T04:37:50;101424.94;;;6.51;44.50
67517;BME280;68821;59.134;37.894;2023-04-19T04:40:18;101431.31;;;6.59;44.34
67517;BME280;68821;59.134;37.894;2023-04-19T04:42:45;101440.31;;;6.69;44.94
67517;BME280;68821;59.134;37.894;2023-04-19T04:45:14;101431.34;;;6.77;44.58
67517;BME280;68821;59.134;37.894;2023-04-19T04:47:42;101432.69;;;6.87;44.20
67517;BME280;68821;59.134;37.894;2023-04-19T04:50:11;101427.94;;;6.95;43.75
67517;BME280;68821;59.134;37.894;2023-04-19T04:52:37;101429.13;;;7.01;44.44
67517;BME280;68821;59.134;37.894;2023-04-19T04:55:03;101434.66;;;7.11;44.82
67517;BME280;68821;59.134;37.894;2023-04-19T04:57:29;101435.78;;;7.16;44.81
67517;BME280;68821;59.134;37.894;2023-04-19T04:59:55;101435.41;;;7.26;44.64
67517;BME280;68821;59.134;37.894;2023-04-19T05:02:21;101442.63;;;7.35;44.68
67517;BME280;68821;59.134;37.894;2023-04-19T05:04:48;101441.22;;;7.41;43.83
67517;BME280;68821;59.134;37.894;2023-04-19T05:07:14;101439.63;;;7.43;43.93
67517;BME280;68821;59.134;37.894;2023-04-19T05:09:40;101438.88;;;7.64;44.71
67517;BME280;68821;59.134;37.894;2023-04-19T05:12:07;101444.03;;;7.83;44.40
67517;BME280;68821;59.134;37.894;2023-04-19T05:14:33;101443.50;;;8.10;43.94
67517;BME280;68821;59.134;37.894;2023-04-19T05:16:59;101442.97;;;8.37;43.37
67517;BME280;68821;59.134;37.894;2023-04-19T05:19:25;101443.88;;;8.58;43.46
67517;BME280;68821;59.134;37.894;2023-04-19T05:21:51;101442.78;;;8.73;42.81
67517;BME280;68821;59.134;37.894;2023-04-19T05:24:17;101449.91;;;8.80;43.08
67517;BME280;68821;59.134;37.894;2023-04-19T05:26:43;101442.34;;;8.83;42.97
67517;BME280;68821;59.134;37.894;2023-04-19T05:29:09;101445.47;;;8.97;42.79
67517;BME280;68821;59.134;37.894;2023-04-19T05:31:35;101442.66;;;9.12;42.26
67517;BME280;68821;59.134;37.894;2023-04-19T05:34:01;101449.34;;;9.29;42.61
67517;BME280;68821;59.134;37.894;2023-04-19T05:36:28;101452.56;;;9.46;42.59
67517;BME280;68821;59.134;37.894;2023-04-19T05:38:54;101446.25;;;9.60;41.88
67517;BME280;68821;59.134;37.894;2023-04-19T05:41:20;101447.81;;;9.79;41.83
67517;BME280;68821;59.134;37.894;2023-04-19T05:43:46;101446.75;;;9.97;41.09
67517;BME280;68821;59.134;37.894;2023-04-19T05:46:12;101450.78;;;10.14;41.17
67517;BME280;68821;59.134;37.894;2023-04-19T05:48:38;101453.81;;;10.26;40.94
67517;BME280;68821;59.134;37.894;2023-04-19T05:51:04;101452.47;;;10.36;41.10
67517;BME280;68821;59.134;37.894;2023-04-19T05:53:30;101457.88;;;10.44;41.21
67517;BME280;68821;59.134;37.894;2023-04-19T05:55:57;101461.53;;;10.51;41.28
67517;BME280;68821;59.134;37.894;2023-04-19T05:58:23;101452.03;;;10.48;41.38
67517;BME280;68821;59.134;37.894;2023-04-19T06:00:50;101450.19;;;10.44;40.83
67517;BME280;68821;59.134;37.894;2023-04-19T06:03:16;101458.19;;;10.53;41.54
67517;BME280;68821;59.134;37.894;2023-04-19T06:05:42;101455.81;;;10.59;41.05
67517;BME280;68821;59.134;37.894;2023-04-19T06:08:08;101461.31;;;10.69;41.29
67517;BME280;68821;59.134;37.894;2023-04-19T06:10:36;101461.66;;;10.79;41.35
67517;BME280;68821;59.134;37.894;2023-04-19T06:13:02;101465.69;;;10.98;41.01
67517;BME280;68821;59.134;37.894;2023-04-19T06:15:28;101466.22;;;11.14;40.86
67517;BME280;68821;59.134;37.894;2023-04-19T06:17:55;101470.97;;;11.28;40.36
67517;BME280;68821;59.134;37.894;2023-04-19T06:20:21;101477.41;;;11.43;40.40
67517;BME280;68821;59.134;37.894;2023-04-19T06:22:47;101456.16;;;11.48;40.06
67517;BME280;68821;59.134;37.894;2023-04-19T06:25:13;101465.09;;;11.61;39.63
67517;BME280;68821;59.134;37.894;2023-04-19T06:27:39;101468.09;;;11.75;39.30
67517;BME280;68821;59.134;37.894;2023-04-19T06:30:06;101455.41;;;11.81;39.08
67517;BME280;68821;59.134;37.894;2023-04-19T06:32:32;101475.50;;;11.92;38.95
67517;BME280;68821;59.134;37.894;2023-04-19T06:34:58;101477.53;;;12.03;38.94
67517;BME280;68821;59.134;37.894;2023-04-19T06:37:24;101480.28;;;12.10;38.45
67517;BME280;68821;59.134;37.894;2023-04-19T06:39:51;101479.50;;;12.12;38.71
67517;BME280;68821;59.134;37.894;2023-04-19T06:42:17;101474.34;;;12.12;38.55
67517;BME280;68821;59.134;37.894;2023-04-19T06:44:44;101472.69;;;12.14;38.66
67517;BME280;68821;59.134;37.894;2023-04-19T06:47:10;101468.56;;;12.21;38.02
67517;BME280;68821;59.134;37.894;2023-04-19T06:49:37;101477.63;;;12.37;38.07
67517;BME280;68821;59.134;37.894;2023-04-19T06:52:03;101476.13;;;12.45;37.65
67517;BME280;68821;59.134;37.894;2023-04-19T06:54:29;101487.69;;;12.61;37.63
67517;BME280;68821;59.134;37.894;2023-04-19T06:56:55;101480.25;;;12.72;37.10
67517;BME280;68821;59.134;37.894;2023-04-19T06:59:21;101471.06;;;12.83;37.39
67517;BME280;68821;59.134;37.894;2023-04-19T07:01:48;101472.38;;;13.00;37.12
67517;BME280;68821;59.134;37.894;2023-04-19T07:04:16;101472.09;;;13.26;36.88
67517;BME280;68821;59.134;37.894;2023-04-19T07:06:42;101471.75;;;13.45;36.41
67517;BME280;68821;59.134;37.894;2023-04-19T07:09:09;101460.66;;;13.51;36.33
67517;BME280;68821;59.134;37.894;2023-04-19T07:11:35;101491.28;;;13.72;35.93
67517;BME280;68821;59.134;37.894;2023-04-19T07:14:01;101476.72;;;13.77;36.12
67517;BME280;68821;59.134;37.894;2023-04-19T07:16:27;101487.34;;;13.89;36.01
67517;BME280;68821;59.134;37.894;2023-04-19T07:18:54;101465.81;;;13.91;35.83
67517;BME280;68821;59.134;37.894;2023-04-19T07:21:20;101472.31;;;14.14;35.36
67517;BME280;68821;59.134;37.894;2023-04-19T07:23:46;101471.69;;;14.26;34.90
67517;BME280;68821;59.134;37.894;2023-04-19T07:26:12;101473.63;;;14.36;34.43
67517;BME280;68821;59.134;37.894;2023-04-19T07:28:39;101471.28;;;14.52;34.21
67517;BME280;68821;59.134;37.894;2023-04-19T07:31:05;101468.16;;;14.66;34.54
67517;BME280;68821;59.134;37.894;2023-04-19T07:33:32;101475.34;;;14.83;34.34
67517;BME280;68821;59.134;37.894;2023-04-19T07:35:58;101453.88;;;14.90;34.22
67517;BME280;68821;59.134;37.894;2023-04-19T07:38:24;101455.69;;;14.94;33.53
67517;BME280;68821;59.134;37.894;2023-04-19T07:40:50;101459.16;;;14.96;33.50
67517;BME280;68821;59.134;37.894;2023-04-19T07:43:17;101457.44;;;14.97;33.67
67517;BME280;68821;59.134;37.894;2023-04-19T07:45:43;101469.53;;;14.96;33.79
67517;BME280;68821;59.134;37.894;2023-04-19T07:48:09;101469.31;;;14.84;33.67
67517;BME280;68821;59.134;37.894;2023-04-19T07:50:35;101474.25;;;14.70;33.44
67517;BME280;68821;59.134;37.894;2023-04-19T07:53:02;101460.31;;;14.62;33.55
67517;BME280;68821;59.134;37.894;2023-04-19T07:55:28;101473.28;;;14.63;33.06
67517;BME280;68821;59.134;37.894;2023-04-19T07:57:54;101444.72;;;14.59;33.09
67517;BME280;68821;59.134;37.894;2023-04-19T08:00:20;101463.22;;;14.80;32.85
67517;BME280;68821;59.134;37.894;2023-04-19T08:02:47;101458.34;;;14.97;32.63
67517;BME280;68821;59.134;37.894;2023-04-19T08:05:14;101458.66;;;15.19;32.63
67517;BME280;68821;59.134;37.894;2023-04-19T08:07:44;101446.81;;;15.35;32.18
67517;BME280;68821;59.134;37.894;2023-04-19T08:10:11;101445.22;;;15.46;32.06
67517;BME280;68821;59.134;37.894;2023-04-19T08:12:37;101446.38;;;15.66;31.46
67517;BME280;68821;59.134;37.894;2023-04-19T08:15:06;101445.09;;;16.01;31.46
67517;BME280;68821;59.134;37.894;2023-04-19T08:17:33;101441.97;;;16.31;30.90
67517;BME280;68821;59.134;37.894;2023-04-19T08:19:59;101440.41;;;16.48;30.92
67517;BME280;68821;59.134;37.894;2023-04-19T08:22:25;101439.59;;;16.53;29.93
67517;BME280;68821;59.134;37.894;2023-04-19T08:24:52;101444.84;;;16.60;29.71
67517;BME280;68821;59.134;37.894;2023-04-19T08:27:19;101436.16;;;16.57;29.19
67517;BME280;68821;59.134;37.894;2023-04-19T08:29:45;101439.47;;;16.39;29.42
67517;BME280;68821;59.134;37.894;2023-04-19T08:32:12;101433.38;;;16.35;29.43
67517;BME280;68821;59.134;37.894;2023-04-19T08:34:38;101432.59;;;16.44;29.09
67517;BME280;68821;59.134;37.894;2023-04-19T08:37:05;101421.50;;;16.60;29.20
67517;BME280;68821;59.134;37.894;2023-04-19T08:39:34;101420.00;;;16.85;29.07
67517;BME280;68821;59.134;37.894;2023-04-19T08:42:05;101426.25;;;17.11;28.43
67517;BME280;68821;59.134;37.894;2023-04-19T08:44:32;101422.03;;;17.33;27.98
67517;BME280;68821;59.134;37.894;2023-04-19T08:46:58;101420.47;;;17.58;28.32
67517;BME280;68821;59.134;37.894;2023-04-19T08:49:28;101421.47;;;17.92;27.63
67517;BME280;68821;59.134;37.894;2023-04-19T08:51:58;101422.44;;;18.25;27.00
67517;BME280;68821;59.134;37.894;2023-04-19T08:54:30;101419.91;;;18.54;26.60
67517;BME280;68821;59.134;37.894;2023-04-19T08:57:00;101418.16;;;18.72;26.37
67517;BME280;68821;59.134;37.894;2023-04-19T08:59:28;101420.78;;;18.95;26.11
67517;BME280;68821;59.134;37.894;2023-04-19T09:02:00;101422.50;;;19.13;25.94
67517;BME280;68821;59.134;37.894;2023-04-19T09:04:27;101416.38;;;19.27;25.65
67517;BME280;68821;59.134;37.894;2023-04-19T09:06:53;101415.50;;;19.35;25.42
67517;BME280;68821;59.134;37.894;2023-04-19T09:09:27;101415.47;;;19.47;25.43
67517;BME280;68821;59.134;37.894;2023-04-19T09:11:54;101404.16;;;19.53;25.38
67517;BME280;68821;59.134;37.894;2023-04-19T09:14:21;101410.19;;;19.64;24.98
67517;BME280;68821;59.134;37.894;2023-04-19T09:16:48;101402.34;;;19.73;25.16
67517;BME280;68821;59.134;37.894;2023-04-19T09:19:16;101400.59;;;19.75;24.54
67517;BME280;68821;59.134;37.894;2023-04-19T09:21:43;101400.59;;;19.69;24.63
67517;BME280;68821;59.134;37.894;2023-04-19T09:24:09;101400.59;;;19.72;24.04
67517;BME280;68821;59.134;37.894;2023-04-19T09:26:36;101393.66;;;19.65;24.17
67517;BME280;68821;59.134;37.894;2023-04-19T09:29:06;101397.09;;;19.75;24.05
67517;BME280;68821;59.134;37.894;2023-04-19T09:31:34;101397.00;;;19.98;24.03
67517;BME280;68821;59.134;37.894;2023-04-19T09:34:17;101395.84;;;20.45;23.88
67517;BME280;68821;59.134;37.894;2023-04-19T09:36:44;101388.44;;;20.95;23.25
67517;BME280;68821;59.134;37.894;2023-04-19T09:39:10;101384.50;;;22.07;23.05
67517;BME280;68821;59.134;37.894;2023-04-19T09:41:50;101372.06;;;23.66;21.77
67517;BME280;68821;59.134;37.894;2023-04-19T09:44:18;101374.09;;;25.01;20.25
67517;BME280;68821;59.134;37.894;2023-04-19T09:46:45;101371.09;;;26.04;19.51
67517;BME280;68821;59.134;37.894;2023-04-19T09:49:14;101375.97;;;27.45;19.38
67517;BME280;68821;59.134;37.894;2023-04-19T09:51:42;101379.28;;;28.40;18.39
67517;BME280;68821;59.134;37.894;2023-04-19T09:54:09;101384.19;;;28.07;18.26
67517;BME280;68821;59.134;37.894;2023-04-19T09:56:36;101378.16;;;27.34;18.42
67517;BME280;68821;59.134;37.894;2023-04-19T09:59:04;101372.75;;;28.28;18.01
67517;BME280;68821;59.134;37.894;2023-04-19T10:01:36;101366.78;;;30.02;16.89
67517;BME280;68821;59.134;37.894;2023-04-19T10:04:04;101370.28;;;31.90;16.37
67517;BME280;68821;59.134;37.894;2023-04-19T10:06:34;101360.38;;;33.96;15.38
67517;BME280;68821;59.134;37.894;2023-04-19T10:09:01;101359.34;;;35.41;14.01
67517;BME280;68821;59.134;37.894;2023-04-19T10:11:34;101358.66;;;35.87;13.62
67517;BME280;68821;59.134;37.894;2023-04-19T10:14:10;101357.44;;;35.91;13.63
67517;BME280;68821;59.134;37.894;2023-04-19T10:16:37;101355.13;;;36.11;13.23
67517;BME280;68821;59.134;37.894;2023-04-19T10:19:07;101346.13;;;35.14;12.85
67517;BME280;68821;59.134;37.894;2023-04-19T10:21:34;101351.66;;;34.06;13.61
67517;BME280;68821;59.134;37.894;2023-04-19T10:24:01;101329.19;;;33.42;13.59
67517;BME280;68821;59.134;37.894;2023-04-19T10:26:28;101356.69;;;32.99;13.70
67517;BME280;68821;59.134;37.894;2023-04-19T10:28:55;101347.34;;;33.64;13.74
67517;BME280;68821;59.134;37.894;2023-04-19T10:31:25;101348.63;;;33.98;13.07
67517;BME280;68821;59.134;37.894;2023-04-19T10:33:52;101358.94;;;32.32;13.30
67517;BME280;68821;59.134;37.894;2023-04-19T10:36:19;101341.81;;;30.42;13.83
67517;BME280;68821;59.134;37.894;2023-04-19T10:38:50;101360.09;;;28.78;14.57
67517;BME280;68821;59.134;37.894;2023-04-19T10:41:55;101349.84;;;27.38;15.41
67517;BME280;68821;59.134;37.894;2023-04-19T10:44:22;101356.88;;;28.06;15.22
67517;BME280;68821;59.134;37.894;2023-04-19T10:46:48;101334.28;;;30.16;14.49
67517;BME280;68821;59.134;37.894;2023-04-19T10:49:14;101336.53;;;32.81;13.44
67517;BME280;68821;59.134;37.894;2023-04-19T10:51:47;101323.78;;;35.15;12.06
67517;BME280;68821;59.134;37.894;2023-04-19T10:54:31;101328.59;;;36.43;11.98
67517;BME280;68821;59.134;37.894;2023-04-19T10:57:03;101329.81;;;37.52;11.17
67517;BME280;68821;59.134;37.894;2023-04-19T10:59:34;101326.53;;;38.13;11.02
67517;BME280;68821;59.134;37.894;2023-04-19T11:02:03;101325.31;;;38.59;10.44
67517;BME280;68821;59.134;37.894;2023-04-19T11:07:06;101319.63;;;38.83;10.12
67517;BME280;68821;59.134;37.894;2023-04-19T11:09:35;101328.53;;;36.78;11.01
67517;BME280;68821;59.134;37.894;2023-04-19T11:12:23;101327.78;;;33.22;11.87
67517;BME280;68821;59.134;37.894;2023-04-19T11:14:55;101321.50;;;30.59;12.35
67517;BME280;68821;59.134;37.894;2023-04-19T11:17:29;101327.91;;;28.46;13.47
67517;BME280;68821;59.134;37.894;2023-04-19T11:22:30;101321.13;;;27.98;13.90
67517;BME280;68821;59.134;37.894;2023-04-19T11:25:16;101316.25;;;27.41;14.12
67517;BME280;68821;59.134;37.894;2023-04-19T11:27:48;101318.00;;;27.42;14.52
67517;BME280;68821;59.134;37.894;2023-04-19T11:30:16;101309.03;;;28.76;13.94
67517;BME280;68821;59.134;37.894;2023-04-19T11:35:11;101304.78;;;29.49;13.49
67517;BME280;68821;59.134;37.894;2023-04-19T11:37:38;101309.41;;;27.81;13.72
67517;BME280;68821;59.134;37.894;2023-04-19T11:40:08;101312.06;;;26.10;14.93
67517;BME280;68821;59.134;37.894;2023-04-19T11:42:34;101316.31;;;24.65;15.26
67517;BME280;68821;59.134;37.894;2023-04-19T11:45:01;101320.63;;;23.57;15.85
67517;BME280;68821;59.134;37.894;2023-04-19T11:47:27;101324.78;;;22.80;16.52
67517;BME280;68821;59.134;37.894;2023-04-19T11:49:54;101316.31;;;22.13;16.31
67517;BME280;68821;59.134;37.894;2023-04-19T11:52:23;101315.09;;;21.78;16.90
67517;BME280;68821;59.134;37.894;2023-04-19T11:54:52;101311.56;;;21.82;16.82
67517;BME280;68821;59.134;37.894;2023-04-19T11:57:29;101306.13;;;23.41;16.58
67517;BME280;68821;59.134;37.894;2023-04-19T12:00:06;101299.72;;;25.84;15.68
67517;BME280;68821;59.134;37.894;2023-04-19T12:02:38;101294.94;;;27.92;14.90
67517;BME280;68821;59.134;37.894;2023-04-19T12:05:13;101288.50;;;29.95;14.07
67517;BME280;68821;59.134;37.894;2023-04-19T12:08:02;101292.22;;;31.43;13.37
67517;BME280;68821;59.134;37.894;2023-04-19T12:10:30;101274.66;;;32.02;12.89
67517;BME280;68821;59.134;37.894;2023-04-19T12:12:56;101299.81;;;32.27;12.58
67517;BME280;68821;59.134;37.894;2023-04-19T12:15:23;101289.28;;;32.40;13.31
67517;BME280;68821;59.134;37.894;2023-04-19T12:20:33;101284.72;;;33.70;12.13
67517;BME280;68821;59.134;37.894;2023-04-19T12:22:59;101291.72;;;34.25;11.44
67517;BME280;68821;59.134;37.894;2023-04-19T12:25:29;101285.97;;;34.44;12.81
67517;BME280;68821;59.134;37.894;2023-04-19T12:27:56;101285.88;;;34.71;11.60
67517;BME280;68821;59.134;37.894;2023-04-19T12:30:23;101282.13;;;34.74;11.43
67517;BME280;68821;59.134;37.894;2023-04-19T12:32:48;101272.53;;;34.58;12.30
67517;BME280;68821;59.134;37.894;2023-04-19T12:35:16;101271.78;;;34.56;11.27
67517;BME280;68821;59.134;37.894;2023-04-19T12:37:42;101269.97;;;34.70;11.77
67517;BME280;68821;59.134;37.894;2023-04-19T12:40:09;101261.56;;;35.00;11.35
67517;BME280;68821;59.134;37.894;2023-04-19T12:42:36;101269.44;;;35.27;11.33
67517;BME280;68821;59.134;37.894;2023-04-19T12:45:02;101264.31;;;35.24;10.79
67517;BME280;68821;59.134;37.894;2023-04-19T12:47:28;101255.88;;;35.17;10.50
67517;BME280;68821;59.134;37.894;2023-04-19T12:49:55;101257.38;;;35.09;10.39
67517;BME280;68821;59.134;37.894;2023-04-19T12:52:22;101257.19;;;34.99;10.71
67517;BME280;68821;59.134;37.894;2023-04-19T12:54:49;101252.75;;;34.48;11.22
67517;BME280;68821;59.134;37.894;2023-04-19T12:57:15;101246.31;;;34.63;10.98